createdAt,value
2019-01-30T00:00:42.255Z,0.29
2019-01-30T00:03:12.813Z,0.30
2019-01-30T00:05:43.449Z,0.23
2019-01-30T00:08:13.992Z,0.22
2019-01-30T00:10:44.608Z,0.22
2019-01-30T00:13:15.231Z,0.20
2019-01-30T00:15:55.791Z,0.21
2019-01-30T00:18:18.332Z,0.24
2019-01-30T00:20:49.123Z,0.20
2019-01-30T00:23:19.722Z,0.22
2019-01-30T00:25:51.703Z,0.24
2019-01-30T00:28:24.980Z,0.25
2019-01-30T00:30:55.643Z,0.27
2019-01-30T00:33:26.247Z,0.23
2019-01-30T00:35:56.985Z,0.23
2019-01-30T00:38:27.617Z,0.25
2019-01-30T00:40:58.239Z,0.26
2019-01-30T00:43:28.876Z,0.27
2019-01-30T00:45:59.671Z,0.26
2019-01-30T00:48:30.344Z,0.24
2019-01-30T00:51:04.978Z,0.26
2019-01-30T00:53:35.606Z,0.31
2019-01-30T00:56:06.817Z,0.31
2019-01-30T00:58:37.448Z,0.35
2019-01-30T01:01:08.787Z,0.35
2019-01-30T01:03:39.727Z,0.39
2019-01-30T01:06:13.380Z,0.40
2019-01-30T01:08:48.544Z,0.42
2019-01-30T01:11:21.685Z,0.48
2019-01-30T01:13:52.393Z,0.48
2019-01-30T01:16:25.771Z,0.52
2019-01-30T01:18:56.513Z,0.49
2019-01-30T01:21:32.538Z,0.48
2019-01-30T01:24:05.651Z,0.49
2019-01-30T01:26:39.956Z,0.52
2019-01-30T01:29:10.888Z,0.54
2019-01-30T01:31:41.416Z,0.53
2019-01-30T01:34:12.363Z,0.51
2019-01-30T01:36:46.057Z,0.50
2019-01-30T01:39:16.916Z,0.50
2019-01-30T01:41:50.279Z,0.52
2019-01-30T01:44:28.942Z,0.53
2019-01-30T01:47:02.827Z,0.55
2019-01-30T01:49:36.649Z,0.59
2019-01-30T01:52:21.616Z,0.59
2019-01-30T01:54:41.282Z,0.60
2019-01-30T01:57:13.617Z,0.63
2019-01-30T01:59:44.311Z,0.62
2019-01-30T02:02:14.892Z,0.52
2019-01-30T02:04:45.490Z,0.47
2019-01-30T02:07:16.195Z,0.47
2019-01-30T02:09:48.066Z,0.53
2019-01-30T02:12:18.976Z,0.55
2019-01-30T02:14:50.601Z,0.59
2019-01-30T02:17:21.363Z,0.60
2019-01-30T02:19:52.114Z,0.62
2019-01-30T02:22:24.641Z,0.64
2019-01-30T02:24:55.513Z,0.66
2019-01-30T02:27:29.649Z,0.64
2019-01-30T02:30:02.002Z,0.65
2019-01-30T02:32:32.629Z,0.67
2019-01-30T02:35:03.494Z,0.70
2019-01-30T02:37:35.830Z,0.70
2019-01-30T02:40:12.139Z,0.72
2019-01-30T02:42:43.990Z,0.69
2019-01-30T02:45:25.488Z,0.67
2019-01-30T02:47:59.514Z,0.69
2019-01-30T02:50:35.124Z,0.66
2019-01-30T02:53:10.744Z,0.69
2019-01-30T02:55:41.946Z,0.71
2019-01-30T02:58:12.885Z,0.70
2019-01-30T03:00:45.417Z,0.66
2019-01-30T03:03:15.992Z,0.73
2019-01-30T03:05:48.339Z,0.77
2019-01-30T03:08:19.161Z,0.79
2019-01-30T03:10:50.064Z,0.76
2019-01-30T03:13:21.084Z,0.79
2019-01-30T03:15:51.818Z,0.78
2019-01-30T03:18:28.730Z,0.82
2019-01-30T03:21:01.110Z,0.84
2019-01-30T03:23:31.866Z,0.87
2019-01-30T03:26:02.647Z,0.89
2019-01-30T03:28:33.387Z,0.91
2019-01-30T03:31:16.861Z,0.89
2019-01-30T03:33:36.650Z,0.89
2019-01-30T03:36:09.676Z,0.89
2019-01-30T03:38:41.432Z,0.85
2019-01-30T03:41:12.378Z,0.81
2019-01-30T03:43:43.106Z,0.82
2019-01-30T03:46:13.854Z,0.79
2019-01-30T03:48:47.663Z,0.78
2019-01-30T03:51:21.352Z,0.78
2019-01-30T03:53:51.904Z,0.76
2019-01-30T03:56:41.619Z,0.73
2019-01-30T03:59:15.646Z,0.72
2019-01-30T04:01:46.555Z,0.72
2019-01-30T04:04:17.766Z,0.71
2019-01-30T04:06:48.557Z,0.69
2019-01-30T04:09:19.569Z,0.68
2019-01-30T04:11:50.607Z,0.70
2019-01-30T04:14:21.616Z,0.65
2019-01-30T04:16:58.403Z,0.58
2019-01-30T04:19:29.480Z,0.59
2019-01-30T04:22:00.234Z,0.61
2019-01-30T04:24:31.156Z,0.63
2019-01-30T04:27:05.403Z,0.61
2019-01-30T04:29:38.356Z,0.63
2019-01-30T04:32:14.398Z,0.61
2019-01-30T04:34:46.567Z,0.61
2019-01-30T04:37:17.301Z,0.52
2019-01-30T04:39:49.579Z,0.49
2019-01-30T04:42:20.314Z,0.47
2019-01-30T04:44:51.367Z,0.47
2019-01-30T04:47:21.958Z,0.41
2019-01-30T04:49:55.846Z,0.38
2019-01-30T04:52:30.143Z,0.38
2019-01-30T04:55:00.848Z,0.33
2019-01-30T04:57:31.612Z,0.28
2019-01-30T05:00:02.422Z,0.26
2019-01-30T05:02:33.420Z,0.27
2019-01-30T05:05:07.954Z,0.30
2019-01-30T05:07:38.908Z,0.32
2019-01-30T05:10:11.403Z,0.33
2019-01-30T05:12:42.139Z,0.30
2019-01-30T05:15:18.967Z,0.30
2019-01-30T05:17:50.714Z,0.34
2019-01-30T05:20:21.736Z,0.35
2019-01-30T05:22:52.515Z,0.37
2019-01-30T05:25:23.197Z,0.31
2019-01-30T05:27:53.918Z,0.32
2019-01-30T05:30:29.495Z,0.28
2019-01-30T05:33:00.082Z,0.23
2019-01-30T05:35:30.729Z,0.22
2019-01-30T05:38:01.319Z,0.23
2019-01-30T05:40:31.980Z,0.24
2019-01-30T05:43:02.646Z,0.24
2019-01-30T05:45:33.244Z,0.21
2019-01-30T05:48:03.788Z,0.18
2019-01-30T05:50:34.387Z,0.18
2019-01-30T05:53:05.087Z,0.21
2019-01-30T05:55:35.809Z,0.20
2019-01-30T05:58:06.700Z,0.21
2019-01-30T06:00:41.970Z,0.17
2019-01-30T06:03:12.605Z,0.20
2019-01-30T06:05:43.143Z,0.21
2019-01-30T06:08:13.712Z,0.21
2019-01-30T06:10:44.304Z,0.23
2019-01-30T06:13:14.912Z,0.24
2019-01-30T06:15:45.581Z,0.21
2019-01-30T06:18:16.769Z,0.21
2019-01-30T06:20:47.707Z,0.21
2019-01-30T06:23:18.403Z,0.20
2019-01-30T06:25:49.092Z,0.21
2019-01-30T06:28:19.828Z,0.20
2019-01-30T06:30:50.570Z,0.24
2019-01-30T06:33:21.193Z,0.27
2019-01-30T06:35:51.921Z,0.26
2019-01-30T06:38:22.555Z,0.27
2019-01-30T06:40:53.198Z,0.29
2019-01-30T06:43:23.767Z,0.30
2019-01-30T06:45:54.376Z,0.31
2019-01-30T06:48:24.931Z,0.30
2019-01-30T06:50:55.548Z,0.31
2019-01-30T06:53:26.615Z,0.30
2019-01-30T06:55:57.163Z,0.33
2019-01-30T06:58:27.838Z,0.28
2019-01-30T07:00:58.442Z,0.26
2019-01-30T07:03:29.042Z,0.29
2019-01-30T07:05:59.643Z,0.25
2019-01-30T07:08:31.818Z,0.26
2019-01-30T07:11:10.472Z,0.25
2019-01-30T07:13:35.236Z,0.25
2019-01-30T07:16:05.897Z,0.24
2019-01-30T07:18:36.611Z,0.25
2019-01-30T07:21:07.252Z,0.28
2019-01-30T07:23:37.886Z,0.31
2019-01-30T07:26:08.531Z,0.31
2019-01-30T07:28:40.876Z,0.32
2019-01-30T07:31:11.543Z,0.34
2019-01-30T07:33:42.214Z,0.37
2019-01-30T07:36:13.064Z,0.36
2019-01-30T07:38:43.743Z,0.36
2019-01-30T07:41:14.448Z,0.35
2019-01-30T07:43:45.045Z,0.37
2019-01-30T07:46:15.660Z,0.39
2019-01-30T07:48:46.477Z,0.42
2019-01-30T07:51:17.081Z,0.42
2019-01-30T07:53:48.756Z,0.43
2019-01-30T07:56:19.332Z,0.42
2019-01-30T07:58:51.156Z,0.42
2019-01-30T08:01:22.251Z,0.43
2019-01-30T08:03:53.253Z,0.42
2019-01-30T08:06:23.994Z,0.45
2019-01-30T08:08:54.582Z,0.48
2019-01-30T08:11:25.271Z,0.47
2019-01-30T08:13:55.846Z,0.44
2019-01-30T08:16:26.512Z,0.43
2019-01-30T08:18:57.324Z,0.45
2019-01-30T08:21:28.250Z,0.47
2019-01-30T08:23:58.879Z,0.50
2019-01-30T08:26:29.906Z,0.52
2019-01-30T08:29:00.857Z,0.53
2019-01-30T08:31:32.095Z,0.55
2019-01-30T08:34:03.128Z,0.53
2019-01-30T08:36:33.923Z,0.46
2019-01-30T08:39:08.067Z,0.46
2019-01-30T08:41:39.212Z,0.42
2019-01-30T08:44:09.981Z,0.43
2019-01-30T08:46:40.816Z,0.46
2019-01-30T08:49:11.972Z,0.40
2019-01-30T08:51:44.097Z,0.43
2019-01-30T08:54:14.824Z,0.41
2019-01-30T08:56:52.954Z,0.44
2019-01-30T08:59:18.179Z,0.49
2019-01-30T09:01:48.798Z,0.51
2019-01-30T09:04:19.451Z,0.52
2019-01-30T09:06:50.289Z,0.54
2019-01-30T09:09:21.001Z,0.57
2019-01-30T09:11:51.707Z,0.58
2019-01-30T09:14:22.323Z,0.61
2019-01-30T09:16:53.076Z,0.61
2019-01-30T09:19:23.808Z,0.65
2019-01-30T09:21:54.940Z,0.67
2019-01-30T09:24:25.625Z,0.69
2019-01-30T09:26:56.353Z,0.69
2019-01-30T09:29:26.884Z,0.70
2019-01-30T09:31:57.677Z,0.73
2019-01-30T09:34:28.382Z,0.76
2019-01-30T09:36:59.058Z,0.79
2019-01-30T09:39:32.739Z,0.81
2019-01-30T09:42:03.352Z,0.84
2019-01-30T09:44:33.936Z,0.86
2019-01-30T09:47:04.475Z,0.91
2019-01-30T09:49:35.052Z,0.95
2019-01-30T09:52:05.932Z,0.97
2019-01-30T09:54:36.517Z,1.02
2019-01-30T09:57:07.264Z,1.04
2019-01-30T09:59:37.791Z,1.07
2019-01-30T10:02:08.390Z,1.10
2019-01-30T10:04:38.888Z,1.12
2019-01-30T10:07:09.483Z,1.14
2019-01-30T10:09:40.078Z,1.14
2019-01-30T10:12:10.626Z,1.17
2019-01-30T10:14:41.192Z,1.20
2019-01-30T10:17:11.844Z,1.23
2019-01-30T10:19:42.450Z,1.21
2019-01-30T10:22:13.042Z,1.24
2019-01-30T10:24:46.713Z,1.23
2019-01-30T10:27:17.323Z,1.24
2019-01-30T10:29:47.945Z,1.30
2019-01-30T10:32:18.691Z,1.32
2019-01-30T10:34:49.214Z,1.35
2019-01-30T10:37:19.724Z,1.40
2019-01-30T10:39:50.326Z,1.44
2019-01-30T10:42:21.016Z,1.47
2019-01-30T10:44:51.516Z,1.51
2019-01-30T10:47:22.190Z,1.54
2019-01-30T10:49:52.745Z,1.57
2019-01-30T10:52:23.419Z,1.60
2019-01-30T10:54:54.004Z,1.61
2019-01-30T10:57:24.641Z,1.65
2019-01-30T10:59:55.173Z,1.70
2019-01-30T11:02:25.739Z,1.75
2019-01-30T11:04:56.291Z,1.80
2019-01-30T11:07:26.837Z,1.84
2019-01-30T11:09:57.376Z,1.88
2019-01-30T11:12:30.731Z,1.90
2019-01-30T11:15:03.023Z,1.94
2019-01-30T11:17:33.649Z,1.99
2019-01-30T11:20:05.029Z,2.03
2019-01-30T11:22:35.606Z,2.05
2019-01-30T11:25:11.074Z,2.09
2019-01-30T11:27:41.677Z,2.11
2019-01-30T11:30:13.463Z,2.14
2019-01-30T11:32:43.986Z,2.16
2019-01-30T11:35:14.915Z,2.16
2019-01-30T11:37:45.453Z,2.18
2019-01-30T11:40:17.783Z,2.21
2019-01-30T11:42:48.423Z,2.25
2019-01-30T11:45:28.595Z,2.28
2019-01-30T11:47:59.184Z,2.28
2019-01-30T11:50:29.753Z,2.31
2019-01-30T11:53:00.362Z,2.32
2019-01-30T11:55:30.909Z,2.35
2019-01-30T11:58:01.503Z,2.41
2019-01-30T12:00:38.496Z,2.42
2019-01-30T12:03:09.057Z,2.44
2019-01-30T12:05:39.742Z,2.44
2019-01-30T12:08:10.327Z,2.48
2019-01-30T12:10:40.918Z,2.47
2019-01-30T12:13:11.437Z,2.48
2019-01-30T12:15:42.018Z,2.48
2019-01-30T12:18:12.672Z,2.50
2019-01-30T12:20:43.253Z,2.53
2019-01-30T12:23:14.780Z,2.58
2019-01-30T12:25:45.324Z,2.62
2019-01-30T12:28:15.857Z,2.67
2019-01-30T12:30:46.409Z,2.73
2019-01-30T12:33:17.244Z,2.72
2019-01-30T12:35:47.770Z,2.75
2019-01-30T12:38:18.396Z,2.74
2019-01-30T12:40:49.019Z,2.82
2019-01-30T12:43:19.599Z,2.88
2019-01-30T12:45:50.092Z,2.91
2019-01-30T12:48:20.682Z,2.92
2019-01-30T12:50:51.362Z,2.96
2019-01-30T12:53:21.900Z,2.98
2019-01-30T12:55:52.570Z,2.98
2019-01-30T12:58:23.144Z,2.99
2019-01-30T13:00:53.735Z,2.92
2019-01-30T13:03:24.296Z,2.93
2019-01-30T13:05:55.962Z,2.90
2019-01-30T13:08:26.543Z,2.92
2019-01-30T13:10:57.059Z,2.94
2019-01-30T13:13:27.658Z,2.96
2019-01-30T13:15:58.164Z,2.90
2019-01-30T13:18:28.794Z,2.91
2019-01-30T13:20:59.328Z,2.94
2019-01-30T13:23:29.951Z,2.91
2019-01-30T13:26:00.549Z,2.89
2019-01-30T13:28:31.240Z,2.85
2019-01-30T13:31:01.810Z,2.76
2019-01-30T13:33:32.909Z,2.65
2019-01-30T13:36:04.042Z,2.59
2019-01-30T13:38:37.672Z,2.64
2019-01-30T13:41:08.231Z,2.63
2019-01-30T13:43:38.844Z,2.62
2019-01-30T13:46:09.373Z,2.57
2019-01-30T13:48:39.979Z,2.53
2019-01-30T13:51:11.304Z,2.50
2019-01-30T13:53:42.270Z,2.50
2019-01-30T13:56:12.942Z,2.45
2019-01-30T13:58:43.464Z,2.50
2019-01-30T14:01:17.594Z,2.49
2019-01-30T14:03:46.319Z,2.55
2019-01-30T14:06:16.995Z,2.52
2019-01-30T14:08:47.549Z,2.47
2019-01-30T14:11:18.191Z,2.51
2019-01-30T14:13:48.777Z,2.47
2019-01-30T14:16:19.299Z,2.36
2019-01-30T14:18:53.099Z,2.44
2019-01-30T14:21:23.708Z,2.44
2019-01-30T14:23:54.324Z,2.47
2019-01-30T14:26:24.824Z,2.52
2019-01-30T14:28:56.006Z,2.48
2019-01-30T14:31:26.596Z,2.51
2019-01-30T14:33:57.370Z,2.59
2019-01-30T14:36:31.066Z,2.59
2019-01-30T14:39:01.741Z,2.66
2019-01-30T14:41:32.446Z,2.69
2019-01-30T14:44:03.018Z,2.70
2019-01-30T14:46:33.577Z,2.68
2019-01-30T14:49:04.149Z,2.69
2019-01-30T14:51:34.654Z,2.67
2019-01-30T14:54:05.398Z,2.62
2019-01-30T14:56:35.986Z,2.50
2019-01-30T14:59:06.510Z,2.51
2019-01-30T15:01:37.165Z,2.49
2019-01-30T15:04:07.679Z,2.46
2019-01-30T15:06:38.222Z,2.42
2019-01-30T15:09:11.167Z,2.36
2019-01-30T15:11:41.678Z,2.36
2019-01-30T15:14:12.311Z,2.33
2019-01-30T15:16:42.881Z,2.38
2019-01-30T15:19:13.480Z,2.41
2019-01-30T15:21:44.033Z,2.37
2019-01-30T15:24:14.603Z,2.38
2019-01-30T15:26:45.080Z,2.40
2019-01-30T15:29:15.659Z,2.41
2019-01-30T15:31:47.304Z,2.39
2019-01-30T15:34:17.824Z,2.38
2019-01-30T15:36:49.674Z,2.31
2019-01-30T15:39:20.288Z,2.28
2019-01-30T15:41:50.815Z,2.19
2019-01-30T15:44:21.415Z,2.12
2019-01-30T15:46:51.918Z,2.15
2019-01-30T15:49:22.552Z,1.99
2019-01-30T15:51:53.151Z,1.98
2019-01-30T15:54:23.708Z,2.00
2019-01-30T15:56:54.277Z,2.04
2019-01-30T15:59:24.824Z,2.02
2019-01-30T16:01:55.373Z,2.03
2019-01-30T16:04:25.935Z,2.00
2019-01-30T16:06:56.489Z,1.93
2019-01-30T16:09:27.063Z,1.93
2019-01-30T16:11:57.597Z,1.94
2019-01-30T16:14:28.173Z,1.95
2019-01-30T16:16:58.738Z,1.94
2019-01-30T16:19:32.304Z,1.96
2019-01-30T16:22:02.867Z,1.90
2019-01-30T16:24:33.416Z,1.96
2019-01-30T16:27:03.997Z,1.94
2019-01-30T16:29:34.553Z,1.97
2019-01-30T16:32:05.537Z,1.96
2019-01-30T16:34:36.083Z,1.96
2019-01-30T16:37:07.180Z,1.98
2019-01-30T16:39:38.406Z,1.98
2019-01-30T16:42:08.951Z,2.00
2019-01-30T16:44:39.583Z,1.98
2019-01-30T16:47:10.120Z,1.95
2019-01-30T16:49:40.699Z,1.96
2019-01-30T16:52:11.270Z,1.94
2019-01-30T16:54:41.848Z,1.94
2019-01-30T16:57:12.426Z,1.92
2019-01-30T16:59:43.029Z,1.93
2019-01-30T17:02:13.618Z,1.91
2019-01-30T17:04:44.156Z,1.91
2019-01-30T17:07:14.694Z,1.91
2019-01-30T17:09:45.240Z,1.92
2019-01-30T17:12:15.804Z,1.92
2019-01-30T17:14:46.306Z,1.85
2019-01-30T17:17:16.869Z,1.87
2019-01-30T17:19:47.408Z,1.82
2019-01-30T17:22:18.101Z,1.82
2019-01-30T17:24:48.666Z,1.82
2019-01-30T17:27:19.315Z,1.79
2019-01-30T17:29:49.867Z,1.77
2019-01-30T17:32:22.649Z,1.80
2019-01-30T17:34:53.221Z,1.77
2019-01-30T17:37:23.747Z,1.80
2019-01-30T17:39:54.343Z,1.77
2019-01-30T17:42:24.869Z,1.80
2019-01-30T17:44:57.504Z,1.79
2019-01-30T17:47:28.075Z,1.79
2019-01-30T17:49:58.974Z,1.72
2019-01-30T17:52:29.531Z,1.76
2019-01-30T17:55:00.098Z,1.73
2019-01-30T17:57:31.005Z,1.73
2019-01-30T18:00:07.049Z,1.73
2019-01-30T18:02:39.923Z,1.72
2019-01-30T18:05:10.569Z,1.77
2019-01-30T18:07:41.254Z,1.76
2019-01-30T18:10:12.976Z,1.78
2019-01-30T18:12:43.542Z,1.74
2019-01-30T18:15:14.710Z,1.73
2019-01-30T18:17:45.276Z,1.74
2019-01-30T18:20:18.154Z,1.73
2019-01-30T18:22:48.769Z,1.72
2019-01-30T18:25:19.353Z,1.73
2019-01-30T18:27:50.101Z,1.68
2019-01-30T18:30:20.840Z,1.63
2019-01-30T18:32:51.425Z,1.60
2019-01-30T18:35:21.976Z,1.61
2019-01-30T18:37:52.582Z,1.62
2019-01-30T18:40:23.839Z,1.61
2019-01-30T18:42:58.522Z,1.55
2019-01-30T18:45:29.300Z,1.53
2019-01-30T18:48:00.052Z,1.49
2019-01-30T18:50:30.983Z,1.43
2019-01-30T18:53:01.557Z,1.44
2019-01-30T18:55:32.172Z,1.43
2019-01-30T18:58:02.781Z,1.42
2019-01-30T19:00:43.577Z,1.42
2019-01-30T19:03:22.759Z,1.42
2019-01-30T19:05:53.377Z,1.39
2019-01-30T19:08:23.957Z,1.36
2019-01-30T19:10:57.250Z,1.37
2019-01-30T19:13:27.768Z,1.35
2019-01-30T19:15:58.506Z,1.33
2019-01-30T19:18:32.216Z,1.32
2019-01-30T19:21:02.955Z,1.27
2019-01-30T19:23:35.572Z,1.25
2019-01-30T19:26:06.296Z,1.21
2019-01-30T19:28:39.805Z,1.17
2019-01-30T19:31:10.395Z,1.15
2019-01-30T19:33:41.119Z,1.14
2019-01-30T19:36:11.689Z,1.09
2019-01-30T19:38:44.348Z,1.04
2019-01-30T19:41:15.090Z,0.99
2019-01-30T19:43:45.883Z,0.93
2019-01-30T19:46:16.692Z,0.87
2019-01-30T19:48:47.583Z,0.85
2019-01-30T19:51:18.462Z,0.85
2019-01-30T19:53:52.161Z,0.79
2019-01-30T19:56:22.990Z,0.75
2019-01-30T19:58:53.868Z,0.71
2019-01-30T20:01:35.663Z,0.70
2019-01-30T20:03:57.317Z,0.71
2019-01-30T20:06:28.342Z,0.70
2019-01-30T20:08:59.320Z,0.69
2019-01-30T20:11:30.470Z,0.69
2019-01-30T20:14:01.478Z,0.70
2019-01-30T20:16:35.251Z,0.66
2019-01-30T20:19:09.751Z,0.65
2019-01-30T20:21:42.467Z,0.63
2019-01-30T20:24:24.952Z,0.63
2019-01-30T20:26:57.831Z,0.64
2019-01-30T20:29:31.415Z,0.63
2019-01-30T20:32:05.181Z,0.65
2019-01-30T20:34:38.885Z,0.63
2019-01-30T20:37:09.889Z,0.63
2019-01-30T20:39:40.522Z,0.61
2019-01-30T20:42:13.250Z,0.53
2019-01-30T20:44:47.009Z,0.55
2019-01-30T20:47:17.911Z,0.53
2019-01-30T20:49:51.895Z,0.54
2019-01-30T20:52:24.162Z,0.49
2019-01-30T20:54:59.782Z,0.47
2019-01-30T20:57:28.255Z,0.48
2019-01-30T20:59:59.239Z,0.43
2019-01-30T21:02:29.935Z,0.44
2019-01-30T21:05:00.892Z,0.41
2019-01-30T21:07:37.412Z,0.40
2019-01-30T21:10:05.918Z,0.37
2019-01-30T21:12:37.290Z,0.31
2019-01-30T21:15:10.861Z,0.31
2019-01-30T21:17:41.422Z,0.29
2019-01-30T21:20:12.774Z,0.25
2019-01-30T21:22:43.641Z,0.21
2019-01-30T21:25:19.946Z,0.20
2019-01-30T21:27:51.070Z,0.14
2019-01-30T21:30:27.554Z,0.12
2019-01-30T21:32:58.126Z,0.10
2019-01-30T21:35:28.719Z,0.10
2019-01-30T21:37:59.391Z,0.07
2019-01-30T21:40:29.964Z,-0.01
2019-01-30T21:43:00.527Z,-0.01
2019-01-30T21:45:31.052Z,-0.08
2019-01-30T21:48:01.632Z,-0.11
2019-01-30T21:50:32.183Z,-0.14
2019-01-30T21:53:02.760Z,-0.12
2019-01-30T21:55:33.352Z,-0.13
2019-01-30T21:58:03.903Z,-0.13
2019-01-30T22:00:34.523Z,-0.07
2019-01-30T22:03:09.315Z,-0.07
2019-01-30T22:05:39.599Z,-0.05
2019-01-30T22:08:10.324Z,0.00
2019-01-30T22:10:40.975Z,0.05
2019-01-30T22:13:11.560Z,0.07
2019-01-30T22:15:42.150Z,0.09
2019-01-30T22:18:15.919Z,0.11
2019-01-30T22:20:46.697Z,0.12
2019-01-30T22:23:17.855Z,0.16
2019-01-30T22:25:48.524Z,0.18
2019-01-30T22:28:25.965Z,0.22
2019-01-30T22:30:58.863Z,0.25
2019-01-30T22:33:34.193Z,0.26
2019-01-30T22:36:05.495Z,0.28
2019-01-30T22:38:36.340Z,0.27
2019-01-30T22:41:10.334Z,0.31
2019-01-30T22:43:42.506Z,0.31
2019-01-30T22:46:13.742Z,0.34
2019-01-30T22:48:44.755Z,0.37
2019-01-30T22:51:16.031Z,0.41
2019-01-30T22:53:47.138Z,0.40
2019-01-30T22:56:19.429Z,0.42
2019-01-30T22:58:54.932Z,0.44
2019-01-30T23:01:51.805Z,0.47
2019-01-30T23:05:08.854Z,0.50
2019-01-30T23:08:06.939Z,0.53
2019-01-30T23:11:26.997Z,0.55
2019-01-30T23:14:06.563Z,0.49
2019-01-30T23:17:31.087Z,0.57
2019-01-30T23:20:28.835Z,0.57
2019-01-30T23:23:45.219Z,0.51
2019-01-30T23:26:54.641Z,0.55
2019-01-30T23:30:12.632Z,0.53
2019-01-30T23:33:29.085Z,0.56
2019-01-30T23:36:44.089Z,0.58
2019-01-30T23:39:45.142Z,0.55
2019-01-30T23:43:08.098Z,0.52
2019-01-30T23:46:23.765Z,0.47
2019-01-30T23:50:16.775Z,0.49
2019-01-30T23:53:47.695Z,0.45
2019-01-30T23:57:00.839Z,0.47
